Time;durP1;ratioP1;P1;durP2;ratioP2;P2;SDS_P1;SDS_P2;PMS_P1;PMS_P2;Temp;Humidity;BMP_temperature;BMP_pressure;BME280_temperature;BME280_humidity;BME280_pressure;Samples;Min_cycle;Max_cycle;Signal;HPM_P1;HPM_P2
2022/06/25 00:01:05;;;;;;;11.82;10.35;;;17.80;99.90;;;;;;5003617;28;20049;-69
2022/06/25 00:03:32;;;;;;;10.60;9.52;;;17.80;99.90;;;;;;5002806;28;20466;-67
2022/06/25 00:05:58;;;;;;;11.52;9.63;;;17.70;99.90;;;;;;4976348;28;20073;-67
2022/06/25 00:08:24;;;;;;;10.45;9.45;;;17.70;99.90;;;;;;5009321;28;20041;-67
2022/06/25 00:10:52;;;;;;;12.25;10.75;;;17.70;99.90;;;;;;5007750;28;20050;-68
2022/06/25 00:13:19;;;;;;;12.57;10.10;;;17.70;99.90;;;;;;4982696;28;20085;-68
2022/06/25 00:15:45;;;;;;;15.25;10.77;;;17.70;99.90;;;;;;4989331;28;20053;-67
2022/06/25 00:18:11;;;;;;;13.52;11.32;;;17.70;99.90;;;;;;5007241;28;20526;-67
2022/06/25 00:20:38;;;;;;;12.80;11.40;;;17.70;99.90;;;;;;4993335;28;20063;-69
2022/06/25 00:23:04;;;;;;;11.13;9.35;;;17.70;99.90;;;;;;4991088;28;20041;-67
2022/06/25 00:25:30;;;;;;;11.40;9.43;;;17.70;99.90;;;;;;5004799;28;20041;-72
2022/06/25 00:27:57;;;;;;;15.75;10.82;;;17.60;99.90;;;;;;5004911;28;20100;-69
2022/06/25 00:30:23;;;;;;;12.88;10.88;;;17.60;99.90;;;;;;5004185;28;20136;-69
2022/06/25 00:32:49;;;;;;;9.30;8.40;;;17.60;99.90;;;;;;4988472;28;20141;-69
2022/06/25 00:35:15;;;;;;;13.70;10.18;;;17.50;99.90;;;;;;4976115;28;20042;-68
2022/06/25 00:37:42;;;;;;;11.73;9.70;;;17.40;99.90;;;;;;4991102;28;20159;-67
2022/06/25 00:40:10;;;;;;;14.32;11.30;;;17.30;99.90;;;;;;5006212;28;20470;-67
2022/06/25 00:42:36;;;;;;;12.55;11.00;;;17.30;99.90;;;;;;5006839;28;20045;-67
2022/06/25 00:45:03;;;;;;;14.95;11.88;;;16.80;99.90;;;;;;5008385;28;20037;-70
2022/06/25 00:47:29;;;;;;;14.23;12.30;;;17.30;99.90;;;;;;4991804;28;20042;-71
2022/06/25 00:49:55;;;;;;;14.52;11.10;;;17.30;99.90;;;;;;5023480;28;20520;-67
2022/06/25 00:52:24;;;;;;;11.60;10.40;;;17.30;99.90;;;;;;5007088;28;20041;-67
2022/06/25 00:54:58;;;;;;;10.00;9.05;;;17.30;99.90;;;;;;4999633;28;20049;-68
2022/06/25 00:57:27;;;;;;;14.07;11.15;;;17.20;99.90;;;;;;4994278;28;20477;-71
2022/06/25 00:59:58;;;;;;;10.32;9.25;;;17.20;99.90;;;;;;5007384;28;20448;-68
2022/06/25 01:02:24;;;;;;;12.07;10.40;;;17.10;99.90;;;;;;4991697;28;20545;-72
2022/06/25 01:04:50;;;;;;;12.75;10.95;;;17.00;99.90;;;;;;5009508;28;20076;-72
2022/06/25 01:07:18;;;;;;;13.27;11.93;;;17.10;99.90;;;;;;4995416;28;20124;-70
2022/06/25 01:09:47;;;;;;;14.50;12.52;;;17.10;99.90;;;;;;5023083;28;20064;-70
2022/06/25 01:12:13;;;;;;;15.65;12.73;;;17.10;99.90;;;;;;5010445;28;20041;-69
2022/06/25 01:14:39;;;;;;;14.02;11.65;;;17.10;99.90;;;;;;5008948;28;20060;-67
2022/06/25 01:17:09;;;;;;;19.40;12.68;;;17.20;99.90;;;;;;5015023;28;20390;-67
2022/06/25 01:19:36;;;;;;;13.55;11.80;;;17.30;99.90;;;;;;5014170;28;20507;-69
2022/06/25 01:22:04;;;;;;;12.88;10.93;;;17.20;99.90;;;;;;5015022;28;20459;-69
2022/06/25 01:24:31;;;;;;;14.68;12.48;;;17.00;99.90;;;;;;4999754;28;20038;-67
2022/06/25 01:26:57;;;;;;;15.98;13.15;;;17.00;99.90;;;;;;5014837;28;20044;-67
2022/06/25 01:29:23;;;;;;;14.73;13.23;;;16.90;99.90;;;;;;4997702;28;20073;-70
2022/06/25 01:31:49;;;;;;;11.68;10.10;;;16.90;99.90;;;;;;5015695;28;20060;-67
2022/06/25 01:34:15;;;;;;;14.40;12.75;;;16.90;99.90;;;;;;5015653;28;20401;-67
2022/06/25 01:36:41;;;;;;;12.68;10.60;;;16.90;99.90;;;;;;5014229;28;20045;-67
2022/06/25 01:39:07;;;;;;;12.43;11.13;;;16.80;99.90;;;;;;5015839;28;20091;-69
2022/06/25 01:41:33;;;;;;;13.80;12.15;;;16.80;99.90;;;;;;5016297;28;20088;-69
2022/06/25 01:43:59;;;;;;;18.75;14.85;;;16.80;99.90;;;;;;4999573;28;20037;-67
2022/06/25 01:46:25;;;;;;;16.08;13.75;;;16.90;99.90;;;;;;5014752;28;20037;-67
2022/06/25 01:48:51;;;;;;;14.95;13.35;;;16.90;99.90;;;;;;4998705;28;20045;-67
2022/06/25 01:51:17;;;;;;;14.10;12.38;;;16.80;99.90;;;;;;5013898;28;20046;-70
2022/06/25 01:53:44;;;;;;;15.65;12.88;;;16.80;99.90;;;;;;5024659;28;20743;-67
2022/06/25 01:56:09;;;;;;;16.48;14.18;;;16.80;99.90;;;;;;5012276;28;20482;-67
2022/06/25 01:58:35;;;;;;;18.83;14.48;;;16.80;99.90;;;;;;4952493;28;20140;-70
2022/06/25 02:01:02;;;;;;;20.23;16.40;;;16.80;99.90;;;;;;5012087;28;20525;-67
2022/06/25 02:03:28;;;;;;;15.27;12.63;;;16.80;99.90;;;;;;5011215;28;20420;-73
2022/06/25 02:05:57;;;;;;;19.50;14.85;;;16.80;99.90;;;;;;5011026;28;20114;-67
2022/06/25 02:08:25;;;;;;;15.25;13.55;;;16.80;99.90;;;;;;5009625;28;20042;-73
2022/06/25 02:10:51;;;;;;;14.52;13.00;;;16.80;99.90;;;;;;4987176;28;20041;-67
2022/06/25 02:13:17;;;;;;;11.25;10.10;;;16.80;99.90;;;;;;5010164;28;20037;-67
2022/06/25 02:15:44;;;;;;;14.90;12.32;;;16.50;99.90;;;;;;5011544;28;20538;-70
2022/06/25 02:18:10;;;;;;;15.90;13.02;;;16.40;99.90;;;;;;5011097;28;20030;-67
2022/06/25 02:20:37;;;;;;;17.90;15.55;;;16.50;99.90;;;;;;5011294;28;20038;-68
2022/06/25 02:23:03;;;;;;;14.75;12.80;;;16.50;99.90;;;;;;5008025;28;20046;-70
2022/06/25 02:25:29;;;;;;;16.77;13.65;;;16.50;99.90;;;;;;5010306;28;20482;-66
2022/06/25 02:27:55;;;;;;;18.70;14.75;;;16.50;99.90;;;;;;4995681;28;20029;-67
2022/06/25 02:30:21;;;;;;;17.92;16.02;;;16.40;99.90;;;;;;4994355;28;20057;-69
2022/06/25 02:32:48;;;;;;;18.85;16.08;;;16.50;99.90;;;;;;5009407;28;20537;-67
2022/06/25 02:35:14;;;;;;;17.75;15.07;;;16.50;99.90;;;;;;5008173;28;20045;-66
2022/06/25 02:37:40;;;;;;;18.35;14.43;;;16.50;99.90;;;;;;5009856;28;20547;-69
2022/06/25 02:40:06;;;;;;;16.15;14.27;;;16.40;99.90;;;;;;5026941;28;20424;-67
2022/06/25 02:42:36;;;;;;;21.30;16.80;;;16.30;99.90;;;;;;5010473;28;20052;-68
2022/06/25 02:45:04;;;;;;;22.58;16.20;;;16.40;99.90;;;;;;5008547;28;20363;-70
2022/06/25 02:47:30;;;;;;;17.35;15.20;;;16.40;99.90;;;;;;5009212;28;20037;-66
2022/06/25 02:49:57;;;;;;;18.60;15.57;;;16.40;99.90;;;;;;4984546;28;20111;-70
2022/06/25 02:52:23;;;;;;;16.98;14.57;;;16.40;99.90;;;;;;5009726;28;20037;-68
2022/06/25 02:54:49;;;;;;;14.63;12.70;;;16.40;99.90;;;;;;4987999;28;20040;-67
2022/06/25 03:00:00;;;;;;;20.38;16.55;;;16.30;99.90;;;;;;5014929;28;20049;-67
2022/06/25 03:02:27;;;;;;;23.25;19.65;;;16.40;99.90;;;;;;5013027;28;20134;-67
2022/06/25 03:04:54;;;;;;;25.77;20.27;;;16.40;99.90;;;;;;4994982;28;20054;-70
2022/06/25 03:07:20;;;;;;;27.25;20.50;;;16.40;99.90;;;;;;5014119;28;20502;-67
2022/06/25 03:09:46;;;;;;;28.10;20.00;;;16.30;99.90;;;;;;5014267;28;20116;-68
2022/06/25 03:12:12;;;;;;;25.80;20.38;;;16.30;99.90;;;;;;5017993;28;20047;-69
2022/06/25 03:14:39;;;;;;;26.55;20.40;;;16.30;99.90;;;;;;5022048;28;20051;-68
2022/06/25 03:17:05;;;;;;;29.35;22.55;;;16.30;99.90;;;;;;5013455;28;20049;-70
2022/06/25 03:19:31;;;;;;;25.85;21.38;;;16.30;99.90;;;;;;5008660;28;20447;-69
2022/06/25 03:21:58;;;;;;;29.70;22.85;;;16.30;99.90;;;;;;5009806;28;20041;-67
2022/06/25 03:24:24;;;;;;;27.67;20.55;;;16.30;99.90;;;;;;4969306;28;20099;-68
2022/06/25 03:26:50;;;;;;;25.98;21.10;;;16.30;99.90;;;;;;4990092;28;20103;-72
2022/06/25 03:29:16;;;;;;;24.80;19.98;;;16.30;99.90;;;;;;5010328;28;20033;-68
2022/06/25 03:31:43;;;;;;;24.23;19.65;;;16.30;99.90;;;;;;5009083;28;20045;-67
2022/06/25 03:34:09;;;;;;;23.95;19.30;;;16.30;99.90;;;;;;4992493;28;20466;-67
2022/06/25 03:36:35;;;;;;;24.80;19.67;;;16.30;99.90;;;;;;4993523;28;20111;-67
2022/06/25 03:39:02;;;;;;;25.92;20.55;;;16.30;99.90;;;;;;5009614;28;20033;-67
2022/06/25 03:41:35;;;;;;;23.52;18.05;;;16.30;99.90;;;;;;4983438;28;20470;-67
2022/06/25 03:44:06;;;;;;;26.50;19.70;;;16.30;99.90;;;;;;4993222;28;20041;-71
2022/06/25 03:46:34;;;;;;;26.50;19.35;;;16.30;99.90;;;;;;4992279;28;20049;-72
2022/06/25 03:49:02;;;;;;;23.45;18.48;;;16.30;99.90;;;;;;4993797;28;20429;-69
2022/06/25 03:51:28;;;;;;;24.38;19.48;;;16.20;99.90;;;;;;5008754;28;20061;-67
2022/06/25 03:53:55;;;;;;;28.02;20.40;;;16.20;99.90;;;;;;5008659;28;20175;-68
2022/06/25 03:56:22;;;;;;;26.90;20.80;;;16.30;99.90;;;;;;4983039;28;20540;-68
2022/06/25 03:58:48;;;;;;;26.55;21.10;;;16.30;99.90;;;;;;4985573;28;20038;-68
2022/06/25 04:01:15;;;;;;;27.88;22.35;;;16.30;99.90;;;;;;4976570;28;20060;-68
2022/06/25 04:03:42;;;;;;;30.02;22.92;;;16.40;99.90;;;;;;5008497;28;20383;-67
2022/06/25 04:06:09;;;;;;;33.25;21.73;;;16.40;99.90;;;;;;4993812;28;20398;-67
2022/06/25 04:08:36;;;;;;;31.10;23.83;;;16.40;99.90;;;;;;5008620;28;20099;-68
2022/06/25 04:11:02;;;;;;;28.33;23.17;;;16.50;99.90;;;;;;5007643;28;20037;-67
2022/06/25 04:13:28;;;;;;;30.48;22.20;;;16.50;99.90;;;;;;4991896;28;21445;-68
2022/06/25 04:15:54;;;;;;;28.75;23.60;;;16.50;99.90;;;;;;5010431;28;20044;-68
2022/06/25 04:18:20;;;;;;;31.27;23.27;;;16.60;99.90;;;;;;5008402;28;20448;-67
2022/06/25 04:20:46;;;;;;;30.08;22.80;;;16.60;99.90;;;;;;4985634;28;20389;-69
2022/06/25 04:23:12;;;;;;;28.95;22.88;;;16.70;99.90;;;;;;4966908;28;20658;-67
2022/06/25 04:25:38;;;;;;;30.17;23.40;;;16.70;99.90;;;;;;5008565;28;20045;-67
2022/06/25 04:30:50;;;;;;;28.27;22.15;;;16.80;99.90;;;;;;5007751;28;20486;-68
2022/06/25 04:33:17;;;;;;;30.08;23.10;;;16.90;99.90;;;;;;5007969;28;20492;-68
2022/06/25 04:35:43;;;;;;;31.17;23.42;;;17.00;99.90;;;;;;4981341;28;20041;-69
2022/06/25 04:38:09;;;;;;;28.35;22.33;;;17.00;99.90;;;;;;4992344;28;20050;-67
2022/06/25 04:40:35;;;;;;;29.55;22.00;;;17.00;99.90;;;;;;5004920;28;20083;-68
2022/06/25 04:43:01;;;;;;;25.85;21.75;;;17.10;99.90;;;;;;5008892;28;20096;-67
2022/06/25 04:45:28;;;;;;;24.45;20.60;;;17.10;99.90;;;;;;4991473;28;20504;-67
2022/06/25 04:48:02;;;;;;;26.25;21.42;;;17.20;99.90;;;;;;5006818;28;20049;-72
2022/06/25 04:50:29;;;;;;;30.30;21.80;;;17.30;99.90;;;;;;4985230;28;20076;-70
2022/06/25 04:52:55;;;;;;;26.98;21.80;;;17.30;99.90;;;;;;4992573;28;20037;-67
2022/06/25 04:55:21;;;;;;;26.88;21.50;;;17.40;99.90;;;;;;5009070;28;20048;-70
2022/06/25 04:57:47;;;;;;;24.85;19.90;;;17.40;99.90;;;;;;5009534;28;20041;-67
2022/06/25 05:00:13;;;;;;;27.98;21.73;;;17.50;99.90;;;;;;5008310;28;20132;-67
2022/06/25 05:02:39;;;;;;;25.77;20.58;;;17.50;99.90;;;;;;4991171;28;20786;-69
2022/06/25 05:05:06;;;;;;;23.17;20.10;;;17.60;99.90;;;;;;5006076;28;20077;-67
2022/06/25 05:07:32;;;;;;;24.60;19.90;;;17.70;99.90;;;;;;5007022;28;20060;-68
2022/06/25 05:09:58;;;;;;;24.42;19.55;;;17.70;99.90;;;;;;5008671;28;20049;-68
2022/06/25 05:15:09;;;;;;;24.35;18.27;;;17.90;99.90;;;;;;5025102;28;20124;-67
2022/06/25 05:17:35;;;;;;;25.52;20.45;;;17.90;99.90;;;;;;4991245;28;20057;-67
2022/06/25 05:20:01;;;;;;;21.88;18.67;;;18.00;99.90;;;;;;5009073;28;20049;-67
2022/06/25 05:22:27;;;;;;;23.75;19.23;;;18.10;99.90;;;;;;5007806;28;20478;-68
2022/06/25 05:24:53;;;;;;;21.83;18.42;;;18.10;99.90;;;;;;4976458;28;20052;-67
2022/06/25 05:27:19;;;;;;;20.27;17.40;;;18.20;99.90;;;;;;5009151;28;20124;-67
2022/06/25 05:29:45;;;;;;;23.60;17.42;;;18.30;99.90;;;;;;4993994;28;20045;-68
2022/06/25 05:32:11;;;;;;;20.50;16.92;;;18.30;99.90;;;;;;4990449;28;20386;-67
2022/06/25 05:34:37;;;;;;;22.70;16.60;;;18.40;99.90;;;;;;5011788;28;20050;-69
2022/06/25 05:37:03;;;;;;;18.77;16.77;;;18.40;99.90;;;;;;5012939;28;20427;-70
2022/06/25 05:39:29;;;;;;;19.58;17.48;;;18.50;99.90;;;;;;5013327;28;20045;-67
2022/06/25 05:41:55;;;;;;;20.08;17.17;;;18.60;99.90;;;;;;5009542;28;20037;-67
2022/06/25 05:44:21;;;;;;;18.88;16.80;;;18.70;99.90;;;;;;5016561;28;20201;-67
2022/06/25 05:46:46;;;;;;;18.50;16.33;;;18.70;99.90;;;;;;5016029;28;20386;-67
2022/06/25 05:49:12;;;;;;;20.50;15.95;;;18.90;99.90;;;;;;5016592;28;20486;-67
2022/06/25 05:51:38;;;;;;;16.45;14.60;;;19.00;99.90;;;;;;4995464;28;20168;-67
2022/06/25 05:54:04;;;;;;;18.45;15.45;;;19.00;99.90;;;;;;5011935;28;20130;-68
2022/06/25 05:56:30;;;;;;;16.63;14.90;;;19.10;99.90;;;;;;5029489;28;20494;-67
2022/06/25 05:58:56;;;;;;;18.17;14.45;;;19.20;99.90;;;;;;4994508;28;20053;-67
2022/06/25 06:01:22;;;;;;;16.92;15.02;;;19.20;99.90;;;;;;5010887;28;20056;-67
2022/06/25 06:03:48;;;;;;;18.00;15.02;;;19.40;99.90;;;;;;4993815;28;20042;-66
2022/06/25 06:06:14;;;;;;;15.20;13.60;;;19.50;99.90;;;;;;5011979;28;20049;-67
2022/06/25 06:08:40;;;;;;;17.02;12.57;;;19.60;99.90;;;;;;4984179;28;20048;-67
2022/06/25 06:11:06;;;;;;;14.88;13.15;;;19.60;99.90;;;;;;5010575;28;20045;-67
2022/06/25 06:13:32;;;;;;;14.95;12.95;;;19.70;99.90;;;;;;5011479;28;20053;-67
2022/06/25 06:15:58;;;;;;;14.73;12.63;;;19.70;99.90;;;;;;5011221;28;20033;-68
2022/06/25 06:18:24;;;;;;;14.32;12.20;;;19.70;99.90;;;;;;4987153;28;20073;-68
2022/06/25 06:20:50;;;;;;;12.75;11.43;;;19.90;99.90;;;;;;5008809;28;20092;-68
2022/06/25 06:23:16;;;;;;;13.30;11.25;;;20.00;99.90;;;;;;5011140;28;20080;-67
2022/06/25 06:25:42;;;;;;;15.05;11.82;;;20.00;99.90;;;;;;4995100;28;20045;-71
2022/06/25 06:28:08;;;;;;;12.43;10.95;;;20.10;99.90;;;;;;5009727;28;20034;-70
2022/06/25 06:30:34;;;;;;;15.50;11.02;;;20.20;99.90;;;;;;5008822;28;20099;-72
2022/06/25 06:33:00;;;;;;;13.07;11.18;;;20.30;99.90;;;;;;5010112;28;20052;-67
2022/06/25 06:35:26;;;;;;;13.30;11.07;;;20.40;99.90;;;;;;5011673;28;20481;-67
2022/06/25 06:37:53;;;;;;;10.95;9.43;;;20.40;99.90;;;;;;4993922;28;20037;-68
2022/06/25 06:40:19;;;;;;;11.73;10.52;;;20.30;99.90;;;;;;4984029;28;20112;-69
2022/06/25 06:42:45;;;;;;;12.52;10.35;;;20.30;99.90;;;;;;4992055;28;20529;-67
2022/06/25 06:45:11;;;;;;;11.60;10.25;;;20.30;99.90;;;;;;5009354;28;20048;-67
2022/06/25 06:47:38;;;;;;;12.65;10.30;;;20.50;99.90;;;;;;4998770;28;20381;-67
2022/06/25 06:50:04;;;;;;;12.13;10.23;;;20.60;99.90;;;;;;4999114;28;20104;-68
2022/06/25 06:52:30;;;;;;;12.82;10.05;;;20.60;99.90;;;;;;5015403;28;20049;-68
2022/06/25 06:54:59;;;;;;;13.75;10.20;;;20.60;99.90;;;;;;5014929;28;20041;-69
2022/06/25 06:57:25;;;;;;;10.88;9.48;;;20.60;99.90;;;;;;4982883;28;20072;-67
2022/06/25 06:59:52;;;;;;;13.13;10.00;;;20.60;99.90;;;;;;5013674;28;20077;-67
2022/06/25 07:02:18;;;;;;;10.43;9.10;;;20.70;99.90;;;;;;4998537;28;20042;-67
2022/06/25 07:04:44;;;;;;;13.20;10.05;;;20.80;99.90;;;;;;5011839;28;20465;-67
2022/06/25 07:07:10;;;;;;;12.30;9.90;;;20.80;99.90;;;;;;4976447;28;20085;-67
2022/06/25 07:09:36;;;;;;;11.38;9.70;;;21.00;99.90;;;;;;5010796;28;20385;-70
2022/06/25 07:12:03;;;;;;;16.15;10.20;;;21.20;99.90;;;;;;4997703;28;20041;-69
2022/06/25 07:14:29;;;;;;;11.57;8.88;;;21.20;99.90;;;;;;5020247;28;20046;-68
2022/06/25 07:16:55;;;;;;;12.50;10.25;;;21.30;99.90;;;;;;4992185;28;20038;-67
2022/06/25 07:19:22;;;;;;;11.35;9.20;;;21.30;99.90;;;;;;5009656;28;20446;-68
2022/06/25 07:21:48;;;;;;;11.02;9.65;;;21.40;99.90;;;;;;4992725;28;20049;-68
2022/06/25 07:24:14;;;;;;;10.23;9.10;;;21.50;99.90;;;;;;5003205;28;20042;-67
2022/06/25 07:26:40;;;;;;;9.63;8.20;;;21.50;99.90;;;;;;5006048;28;20394;-67
2022/06/25 07:29:06;;;;;;;8.80;7.90;;;21.50;99.90;;;;;;4979077;28;20046;-68
2022/06/25 07:31:32;;;;;;;9.52;7.70;;;21.50;99.90;;;;;;5004526;28;20042;-70
2022/06/25 07:33:58;;;;;;;9.27;7.88;;;21.50;99.90;;;;;;4965549;28;20437;-68
2022/06/25 07:36:24;;;;;;;9.98;8.52;;;21.60;99.90;;;;;;4962575;28;20068;-68
2022/06/25 07:38:50;;;;;;;7.85;6.95;;;21.70;99.90;;;;;;5005170;28;20057;-67
2022/06/25 07:41:16;;;;;;;10.85;7.35;;;21.80;99.90;;;;;;4965404;28;20092;-69
2022/06/25 07:43:42;;;;;;;7.50;6.60;;;21.90;99.90;;;;;;5006145;28;20038;-67
2022/06/25 07:46:09;;;;;;;7.82;6.82;;;22.10;99.90;;;;;;4990154;28;20482;-67
2022/06/25 07:48:35;;;;;;;9.82;6.95;;;22.20;99.90;;;;;;4989811;28;20049;-68
2022/06/25 07:53:45;;;;;;;10.13;6.40;;;22.30;99.90;;;;;;5005828;28;20509;-67
2022/06/25 07:56:12;;;;;;;7.57;6.70;;;22.40;99.90;;;;;;4980851;28;20038;-67
2022/06/25 07:58:38;;;;;;;8.60;6.68;;;22.40;99.90;;;;;;5003627;28;20090;-67
2022/06/25 08:01:06;;;;;;;8.07;6.40;;;22.50;99.90;;;;;;4989130;28;20053;-68
2022/06/25 08:03:35;;;;;;;7.18;6.47;;;22.50;99.90;;;;;;5005971;28;20042;-67
2022/06/25 08:06:01;;;;;;;8.00;6.28;;;22.70;99.90;;;;;;5010648;28;20048;-69
2022/06/25 08:08:27;;;;;;;7.70;6.53;;;22.80;99.90;;;;;;4996851;28;20496;-68
2022/06/25 08:10:53;;;;;;;5.95;5.35;;;22.80;99.90;;;;;;4978040;28;20049;-68
2022/06/25 08:13:19;;;;;;;6.70;4.93;;;22.90;99.90;;;;;;5021606;28;20123;-67
2022/06/25 08:15:45;;;;;;;5.90;4.30;;;22.80;99.90;;;;;;4996300;28;20052;-67
2022/06/25 08:18:11;;;;;;;5.53;4.72;;;23.00;99.90;;;;;;5014134;28;20049;-68
2022/06/25 08:20:37;;;;;;;8.90;4.85;;;23.10;99.90;;;;;;4992852;28;20049;-69
2022/06/25 08:23:03;;;;;;;6.10;3.92;;;23.10;99.90;;;;;;5020308;28;20053;-69
2022/06/25 08:25:29;;;;;;;8.38;3.15;;;23.20;99.90;;;;;;5011910;28;20045;-67
2022/06/25 08:27:55;;;;;;;6.20;4.63;;;23.20;99.90;;;;;;5012391;28;20041;-67
2022/06/25 08:30:23;;;;;;;5.30;4.20;;;23.20;99.90;;;;;;5008830;28;20207;-67
2022/06/25 08:32:49;;;;;;;4.50;3.28;;;23.20;99.90;;;;;;4991878;28;20393;-68
2022/06/25 08:35:16;;;;;;;6.60;3.40;;;23.20;99.90;;;;;;5007708;28;20482;-72
2022/06/25 08:37:46;;;;;;;4.80;3.55;;;23.40;99.90;;;;;;5009841;28;20120;-73
2022/06/25 08:40:13;;;;;;;4.78;2.90;;;23.20;99.90;;;;;;5008693;28;20120;-71
2022/06/25 08:42:39;;;;;;;7.57;3.58;;;23.20;99.90;;;;;;4992795;28;20499;-70
2022/06/25 08:45:06;;;;;;;7.40;4.20;;;23.20;99.90;;;;;;5010197;28;20103;-70
2022/06/25 08:47:32;;;;;;;4.60;3.97;;;23.40;99.90;;;;;;5013504;28;20073;-71
2022/06/25 08:50:02;;;;;;;5.70;3.42;;;23.40;99.90;;;;;;5014121;28;20054;-70
2022/06/25 08:52:28;;;;;;;5.13;2.90;;;23.40;99.90;;;;;;5012078;28;20100;-72
2022/06/25 08:54:58;;;;;;;4.28;2.95;;;23.50;99.90;;;;;;4996935;28;20045;-71
2022/06/25 08:57:24;;;;;;;5.25;3.30;;;23.40;99.90;;;;;;4993326;28;20045;-71
2022/06/25 08:59:50;;;;;;;4.13;3.30;;;23.50;99.90;;;;;;5006738;28;20529;-70
2022/06/25 09:02:16;;;;;;;5.22;3.42;;;23.60;99.90;;;;;;5011218;28;20050;-69
2022/06/25 09:04:45;;;;;;;6.75;3.90;;;23.60;99.90;;;;;;5008619;28;20100;-73
2022/06/25 09:07:17;;;;;;;5.90;3.30;;;23.40;99.90;;;;;;5008540;28;20466;-71
2022/06/25 09:09:51;;;;;;;5.50;3.13;;;23.60;99.90;;;;;;5008840;28;20057;-70
2022/06/25 09:12:18;;;;;;;4.78;3.33;;;23.70;99.90;;;;;;4986462;28;20487;-71
2022/06/25 09:14:44;;;;;;;7.05;3.78;;;23.80;99.90;;;;;;5013501;28;20417;-69
2022/06/25 09:17:13;;;;;;;5.57;2.90;;;24.10;99.90;;;;;;4996152;28;20045;-70
2022/06/25 09:19:39;;;;;;;5.38;2.90;;;24.30;99.90;;;;;;5017289;28;20045;-70
2022/06/25 09:22:11;;;;;;;5.15;2.75;;;24.40;99.90;;;;;;5016167;28;20045;-71
2022/06/25 09:24:48;;;;;;;7.05;2.90;;;24.40;99.90;;;;;;5017305;28;20111;-72
2022/06/25 09:27:21;;;;;;;4.38;2.80;;;24.30;99.90;;;;;;5017383;28;20368;-69
2022/06/25 09:29:49;;;;;;;4.50;3.20;;;24.30;99.90;;;;;;5000121;28;20055;-70
2022/06/25 09:32:17;;;;;;;4.00;2.72;;;24.30;99.90;;;;;;5016013;28;20045;-68
2022/06/25 09:34:43;;;;;;;2.88;2.40;;;24.10;99.90;;;;;;5017224;28;20587;-71
2022/06/25 09:37:28;;;;;;;5.32;2.80;;;24.00;99.90;;;;;;5016674;28;20073;-69
2022/06/25 09:39:55;;;;;;;6.15;2.67;;;23.80;99.90;;;;;;5016572;28;20053;-71
2022/06/25 09:42:29;;;;;;;3.55;2.20;;;23.80;99.90;;;;;;5016690;28;20049;-69
2022/06/25 09:45:05;;;;;;;2.67;2.30;;;24.00;99.90;;;;;;5016939;28;20080;-69
2022/06/25 09:47:35;;;;;;;2.42;1.73;;;24.10;99.90;;;;;;5016627;28;20060;-69
2022/06/25 09:50:16;;;;;;;2.55;2.30;;;24.40;99.90;;;;;;5016394;28;20371;-70
2022/06/25 09:53:09;;;;;;;4.63;2.63;;;24.40;99.90;;;;;;5016290;28;20046;-69
2022/06/25 09:55:40;;;;;;;3.72;2.67;;;24.30;99.90;;;;;;5012063;28;20053;-70
2022/06/25 09:58:06;;;;;;;5.28;2.70;;;24.10;99.90;;;;;;5000521;28;20043;-69
2022/06/25 10:00:33;;;;;;;3.90;2.50;;;24.20;99.90;;;;;;5016404;28;20041;-70
2022/06/25 10:03:00;;;;;;;5.05;2.85;;;24.10;99.90;;;;;;5016087;28;20046;-71
2022/06/25 10:05:38;;;;;;;4.53;2.83;;;24.30;99.90;;;;;;4996357;28;20084;-70
2022/06/25 10:08:11;;;;;;;3.25;2.65;;;24.30;99.90;;;;;;5012519;28;20072;-70
2022/06/25 10:10:39;;;;;;;4.18;3.33;;;24.50;99.90;;;;;;5011716;28;20486;-69
2022/06/25 10:13:05;;;;;;;5.63;2.90;;;24.80;99.90;;;;;;5024599;28;20128;-71
2022/06/25 10:15:32;;;;;;;4.00;3.38;;;24.90;99.90;;;;;;5014004;28;20052;-69
2022/06/25 10:18:01;;;;;;;6.25;3.05;;;24.80;99.90;;;;;;5011706;28;20042;-69
2022/06/25 10:20:28;;;;;;;4.00;2.92;;;24.60;99.90;;;;;;4994872;28;20049;-71
2022/06/25 10:22:55;;;;;;;4.05;2.97;;;24.70;99.90;;;;;;4994940;28;20061;-71
2022/06/25 10:25:23;;;;;;;2.35;2.15;;;25.00;99.90;;;;;;5009686;28;20038;-71
2022/06/25 10:28:03;;;;;;;5.30;2.90;;;25.20;99.90;;;;;;5016336;28;20037;-71
2022/06/25 10:30:45;;;;;;;6.07;2.60;;;25.20;99.90;;;;;;5012386;28;20101;-70
2022/06/25 10:33:13;;;;;;;3.22;2.50;;;25.10;99.90;;;;;;5009827;28;20034;-70
2022/06/25 10:35:40;;;;;;;5.40;2.70;;;25.10;99.90;;;;;;4993601;28;20045;-69
2022/06/25 10:38:23;;;;;;;5.18;2.70;;;25.00;99.90;;;;;;5005101;28;20030;-70
2022/06/25 10:40:51;;;;;;;4.93;2.78;;;24.90;99.90;;;;;;5005881;28;20044;-71
2022/06/25 10:43:36;;;;;;;5.75;2.85;;;25.10;99.90;;;;;;5013230;28;20125;-70
2022/06/25 10:46:22;;;;;;;3.25;2.90;;;25.30;99.90;;;;;;4994367;28;20046;-70
2022/06/25 10:48:56;;;;;;;6.78;2.88;;;25.30;99.90;;;;;;5012409;28;20042;-70
2022/06/25 10:51:29;;;;;;;5.22;3.65;;;25.30;99.90;;;;;;4993695;28;20064;-70
2022/06/25 10:53:57;;;;;;;2.90;2.60;;;25.30;99.90;;;;;;5012420;28;20486;-69
2022/06/25 10:56:23;;;;;;;4.55;2.75;;;25.40;99.90;;;;;;4995716;28;20461;-70
2022/06/25 10:58:51;;;;;;;3.92;2.72;;;25.40;99.90;;;;;;4996218;28;20084;-70
2022/06/25 11:01:27;;;;;;;3.83;3.03;;;25.50;99.90;;;;;;4990710;28;20053;-70
2022/06/25 11:03:55;;;;;;;3.72;3.00;;;25.60;99.90;;;;;;4984202;28;20069;-70
2022/06/25 11:06:39;;;;;;;5.32;2.83;;;25.60;99.90;;;;;;5011978;28;20129;-69
2022/06/25 11:09:14;;;;;;;4.20;2.90;;;25.70;99.90;;;;;;5014868;28;20517;-69
2022/06/25 11:11:42;;;;;;;4.60;3.40;;;25.70;99.90;;;;;;5012571;28;20513;-72
2022/06/25 11:14:22;;;;;;;3.47;3.08;;;25.50;99.90;;;;;;4983905;28;20041;-70
2022/06/25 11:16:49;;;;;;;3.95;3.15;;;25.40;99.90;;;;;;5013776;28;20050;-69
2022/06/25 11:19:15;;;;;;;7.68;3.53;;;25.50;99.90;;;;;;5031855;28;20401;-70
2022/06/25 11:21:43;;;;;;;3.90;3.30;;;25.60;99.90;;;;;;5012576;28;20419;-69
2022/06/25 11:24:19;;;;;;;4.80;3.42;;;25.40;99.90;;;;;;5014145;28;20052;-70
2022/06/25 11:29:46;;;;;;;4.20;2.88;;;25.80;99.90;;;;;;5014801;28;20049;-71
2022/06/25 11:32:19;;;;;;;4.63;3.20;;;26.20;99.90;;;;;;4985779;28;20675;-73
2022/06/25 11:34:54;;;;;;;7.68;3.10;;;26.30;99.90;;;;;;5007739;28;20127;-72
2022/06/25 11:37:21;;;;;;;4.28;2.90;;;26.40;99.90;;;;;;4984166;28;20054;-67
2022/06/25 11:39:48;;;;;;;6.03;3.30;;;26.60;99.90;;;;;;5006330;28;20046;-67
2022/06/25 11:42:15;;;;;;;3.53;2.80;;;26.50;99.90;;;;;;5006220;28;20722;-67
2022/06/25 11:44:50;;;;;;;3.63;2.88;;;26.30;99.90;;;;;;4991445;28;20045;-67
2022/06/25 11:47:25;;;;;;;4.07;2.97;;;26.40;99.90;;;;;;5009387;28;20179;-67
2022/06/25 11:49:52;;;;;;;5.05;3.40;;;26.60;99.90;;;;;;5023477;28;20090;-68
2022/06/25 11:52:22;;;;;;;3.53;2.90;;;26.70;99.90;;;;;;5008613;28;20487;-68
2022/06/25 11:54:52;;;;;;;3.65;2.95;;;26.80;99.90;;;;;;5008921;28;20099;-68
2022/06/25 11:57:23;;;;;;;4.22;2.53;;;27.00;99.90;;;;;;5007187;28;20037;-68
2022/06/25 11:59:51;;;;;;;3.72;2.33;;;27.30;99.90;;;;;;5009493;28;20045;-67
2022/06/25 12:02:17;;;;;;;2.42;2.22;;;27.50;99.90;;;;;;4992617;28;20096;-68
2022/06/25 12:04:56;;;;;;;3.17;2.10;;;27.70;99.90;;;;;;5019972;28;20045;-67
2022/06/25 12:07:33;;;;;;;4.95;1.98;;;27.70;99.70;;;;;;5018854;28;20731;-68
2022/06/25 12:10:08;;;;;;;2.95;2.17;;;27.60;98.00;;;;;;4989688;28;20048;-67
2022/06/25 12:12:36;;;;;;;1.98;1.75;;;27.40;97.70;;;;;;5017867;28;20045;-68
2022/06/25 12:15:02;;;;;;;3.22;1.80;;;27.30;98.70;;;;;;5008521;28;20034;-67
2022/06/25 12:17:36;;;;;;;2.35;1.60;;;27.60;99.90;;;;;;4991028;28;20503;-67
2022/06/25 12:20:08;;;;;;;3.65;1.67;;;27.90;98.90;;;;;;5002391;28;20172;-67
2022/06/25 12:22:38;;;;;;;1.70;1.60;;;28.00;94.40;;;;;;5010642;28;20045;-69
2022/06/25 12:25:05;;;;;;;3.08;1.90;;;27.60;95.50;;;;;;5010600;28;20060;-68
2022/06/25 12:27:32;;;;;;;2.47;1.60;;;27.60;95.20;;;;;;4994197;28;20502;-69
2022/06/25 12:30:00;;;;;;;2.00;1.67;;;27.60;95.70;;;;;;5005926;28;20053;-67
2022/06/25 12:32:42;;;;;;;2.33;2.13;;;27.80;95.50;;;;;;4985763;28;20073;-67
2022/06/25 12:35:28;;;;;;;5.72;1.98;;;28.30;95.50;;;;;;5003719;28;20050;-68
2022/06/25 12:38:11;;;;;;;3.38;1.88;;;28.40;90.60;;;;;;5005955;28;20581;-70
2022/06/25 12:40:39;;;;;;;4.30;1.77;;;28.40;86.40;;;;;;5004181;28;20065;-69
2022/06/25 12:43:09;;;;;;;1.92;1.50;;;28.40;92.20;;;;;;4989291;28;20155;-69
2022/06/25 12:45:36;;;;;;;3.57;1.60;;;28.60;92.30;;;;;;5005394;28;20037;-68
2022/06/25 12:48:03;;;;;;;2.20;1.50;;;28.80;92.50;;;;;;5004678;28;20107;-68
2022/06/25 12:50:34;;;;;;;5.88;1.67;;;28.80;90.50;;;;;;5004862;28;20038;-67
2022/06/25 12:53:07;;;;;;;5.45;1.88;;;28.60;85.40;;;;;;5004071;28;20128;-69